createdAt,value
2023-02-11T00:00:06.533Z,6.11
2023-02-11T00:01:06.495Z,6.08
2023-02-11T00:02:06.463Z,6.14
2023-02-11T00:03:06.438Z,6.11
2023-02-11T00:04:06.356Z,6.10
2023-02-11T00:05:06.323Z,6.17
2023-02-11T00:06:06.289Z,6.21
2023-02-11T00:07:06.225Z,6.13
2023-02-11T00:08:06.181Z,6.32
2023-02-11T00:09:06.155Z,6.21
2023-02-11T00:10:06.095Z,6.21
2023-02-11T00:11:06.059Z,6.24
2023-02-11T00:12:06.012Z,6.27
2023-02-11T00:13:05.975Z,6.38
2023-02-11T00:14:05.946Z,6.30
2023-02-11T00:15:05.882Z,6.25
2023-02-11T00:16:05.838Z,6.39
2023-02-11T00:17:05.793Z,6.42
2023-02-11T00:18:05.750Z,6.35
2023-02-11T00:19:05.711Z,6.45
2023-02-11T00:20:08.169Z,6.40
2023-02-11T00:21:05.621Z,6.42
2023-02-11T00:22:05.589Z,6.43
2023-02-11T00:23:05.531Z,6.40
2023-02-11T00:24:05.491Z,6.45
2023-02-11T00:25:05.455Z,6.36
2023-02-11T00:26:05.402Z,6.32
2023-02-11T00:27:05.372Z,6.35
2023-02-11T00:28:05.399Z,6.24
2023-02-11T00:29:05.282Z,6.33
2023-02-11T00:30:05.230Z,6.39
2023-02-11T00:31:05.340Z,6.28
2023-02-11T00:32:05.164Z,6.30
2023-02-11T00:33:05.105Z,6.27
2023-02-11T00:34:05.071Z,6.35
2023-02-11T00:35:05.014Z,6.32
2023-02-11T00:36:04.970Z,6.30
2023-02-11T00:37:04.926Z,6.24
2023-02-11T00:38:04.897Z,6.25
2023-02-11T00:39:04.839Z,6.21
2023-02-11T00:40:06.746Z,6.33
2023-02-11T00:41:04.765Z,6.40
2023-02-11T00:42:04.707Z,6.39
2023-02-11T00:43:04.666Z,6.33
2023-02-11T00:44:04.641Z,6.36
2023-02-11T00:45:04.582Z,6.35
2023-02-11T00:46:04.560Z,6.35
2023-02-11T00:47:04.488Z,6.40
2023-02-11T00:48:04.453Z,6.43
2023-02-11T00:49:04.408Z,6.40
2023-02-11T00:50:04.372Z,6.38
2023-02-11T00:51:04.356Z,6.33
2023-02-11T00:52:04.325Z,6.43
2023-02-11T00:53:04.235Z,6.48
2023-02-11T00:54:04.208Z,6.33
2023-02-11T00:55:04.155Z,6.25
2023-02-11T00:56:04.117Z,6.35
2023-02-11T00:57:04.069Z,6.40
2023-02-11T00:58:04.015Z,6.39
2023-02-11T00:59:03.973Z,6.38
2023-02-11T01:00:03.946Z,6.36
2023-02-11T01:01:03.910Z,6.25
2023-02-11T01:02:03.844Z,6.33
2023-02-11T01:03:03.804Z,6.21
2023-02-11T01:04:03.763Z,6.17
2023-02-11T01:05:03.768Z,6.17
2023-02-11T01:06:03.684Z,6.13
2023-02-11T01:07:03.638Z,6.19
2023-02-11T01:08:03.591Z,6.20
2023-02-11T01:09:03.542Z,6.14
2023-02-11T01:10:03.503Z,6.24
2023-02-11T01:11:03.470Z,6.25
2023-02-11T01:12:03.416Z,6.24
2023-02-11T01:13:03.380Z,6.13
2023-02-11T01:14:03.329Z,6.30
2023-02-11T01:15:03.285Z,6.19
2023-02-11T01:16:03.305Z,6.28
2023-02-11T01:17:03.202Z,6.30
2023-02-11T01:18:03.161Z,6.32
2023-02-11T01:19:03.135Z,6.33
2023-02-11T01:20:03.072Z,6.35
2023-02-11T01:21:03.028Z,6.40
2023-02-11T01:22:03.003Z,6.32
2023-02-11T01:23:02.949Z,6.50
2023-02-11T01:24:02.899Z,6.45
2023-02-11T01:25:02.857Z,6.39
2023-02-11T01:26:02.816Z,6.43
2023-02-11T01:27:02.772Z,6.55
2023-02-11T01:28:02.781Z,6.40
2023-02-11T01:29:02.695Z,6.50
2023-02-11T01:30:02.641Z,6.40
2023-02-11T01:31:02.672Z,6.39
2023-02-11T01:32:02.590Z,6.36
2023-02-11T01:33:02.514Z,6.48
2023-02-11T01:34:02.484Z,6.38
2023-02-11T01:35:02.422Z,6.43
2023-02-11T01:36:02.400Z,6.40
2023-02-11T01:37:02.338Z,6.42
2023-02-11T01:38:02.325Z,6.36
2023-02-11T01:39:02.250Z,6.40
2023-02-11T01:40:02.230Z,6.40
2023-02-11T01:41:02.169Z,6.39
2023-02-11T01:42:02.124Z,6.40
2023-02-11T01:43:02.077Z,6.40
2023-02-11T01:44:02.060Z,6.50
2023-02-11T01:45:01.998Z,6.42
2023-02-11T01:46:02.028Z,6.45
2023-02-11T01:47:01.911Z,6.45
2023-02-11T01:48:01.871Z,6.38
2023-02-11T01:49:01.853Z,6.40
2023-02-11T01:50:01.819Z,6.45
2023-02-11T01:51:01.732Z,6.50
2023-02-11T01:52:01.693Z,6.45
2023-02-11T01:53:01.646Z,6.46
2023-02-11T01:54:01.602Z,6.51
2023-02-11T01:55:01.593Z,6.46
2023-02-11T01:56:01.547Z,6.55
2023-02-11T01:57:01.479Z,6.51
2023-02-11T01:58:01.428Z,6.68
2023-02-11T01:59:01.388Z,6.60
2023-02-11T02:00:01.392Z,6.54
2023-02-11T02:01:01.313Z,6.58
2023-02-11T02:02:01.298Z,6.60
2023-02-11T02:03:01.212Z,6.60
2023-02-11T02:04:01.242Z,6.53
2023-02-11T02:05:01.130Z,6.60
2023-02-11T02:06:01.091Z,6.54
2023-02-11T02:07:01.052Z,6.63
2023-02-11T02:08:01.007Z,6.61
2023-02-11T02:09:00.956Z,6.64
2023-02-11T02:10:00.914Z,6.73
2023-02-11T02:11:00.889Z,6.68
2023-02-11T02:12:00.822Z,6.64
2023-02-11T02:13:00.781Z,6.63
2023-02-11T02:14:00.740Z,6.60
2023-02-11T02:15:00.696Z,6.68
2023-02-11T02:16:00.701Z,6.68
2023-02-11T02:17:00.619Z,6.69
2023-02-11T02:18:00.569Z,6.64
2023-02-11T02:19:00.520Z,6.61
2023-02-11T02:20:00.483Z,6.65
2023-02-11T02:21:00.433Z,6.61
2023-02-11T02:22:00.404Z,6.68
2023-02-11T02:23:00.348Z,6.69
2023-02-11T02:24:00.308Z,6.61
2023-02-11T02:25:00.261Z,6.61
2023-02-11T02:26:00.233Z,6.61
2023-02-11T02:27:00.181Z,6.64
2023-02-11T02:28:00.240Z,6.53
2023-02-11T02:29:00.111Z,6.68
2023-02-11T02:30:00.063Z,6.57
2023-02-11T02:31:00.131Z,6.61
2023-02-11T02:31:59.957Z,6.63
2023-02-11T02:33:02.156Z,6.55
2023-02-11T02:33:59.871Z,6.58
2023-02-11T02:34:59.855Z,6.63
2023-02-11T02:35:59.790Z,6.65
2023-02-11T02:36:59.742Z,6.51
2023-02-11T02:37:59.698Z,6.63
2023-02-11T02:38:59.665Z,6.58
2023-02-11T02:39:59.613Z,6.54
2023-02-11T02:40:59.569Z,6.63
2023-02-11T02:41:59.527Z,6.53
2023-02-11T02:42:59.484Z,6.61
2023-02-11T02:43:59.458Z,6.58
2023-02-11T02:44:59.399Z,6.61
2023-02-11T02:45:59.356Z,6.60
2023-02-11T02:46:59.431Z,6.57
2023-02-11T02:47:59.276Z,6.61
2023-02-11T02:48:59.233Z,6.60
2023-02-11T02:49:59.187Z,6.58
2023-02-11T02:50:59.142Z,6.57
2023-02-11T02:51:59.114Z,6.61
2023-02-11T02:52:59.057Z,6.61
2023-02-11T02:53:59.013Z,6.60
2023-02-11T02:54:58.966Z,6.63
2023-02-11T02:55:58.933Z,6.60
2023-02-11T02:56:58.896Z,6.63
2023-02-11T02:57:58.847Z,6.61
2023-02-11T02:58:58.818Z,6.55
2023-02-11T02:59:58.774Z,6.64
2023-02-11T03:00:58.719Z,6.63
2023-02-11T03:01:58.667Z,6.64
2023-02-11T03:02:58.628Z,6.60
2023-02-11T03:03:58.628Z,6.53
2023-02-11T03:04:58.556Z,6.58
2023-02-11T03:05:58.505Z,6.60
2023-02-11T03:06:58.461Z,6.65
2023-02-11T03:07:58.413Z,6.61
2023-02-11T03:08:58.373Z,6.57
2023-02-11T03:09:58.349Z,6.63
2023-02-11T03:10:58.281Z,6.57
2023-02-11T03:11:58.263Z,6.53
2023-02-11T03:12:58.194Z,6.57
2023-02-11T03:13:58.155Z,6.57
2023-02-11T03:14:58.109Z,6.58
2023-02-11T03:15:58.116Z,6.58
2023-02-11T03:16:58.024Z,6.60
2023-02-11T03:17:57.994Z,6.63
2023-02-11T03:18:57.936Z,6.58
2023-02-11T03:19:57.896Z,6.63
2023-02-11T03:20:57.869Z,6.55
2023-02-11T03:21:57.817Z,6.58
2023-02-11T03:22:57.763Z,6.71
2023-02-11T03:23:57.734Z,6.58
2023-02-11T03:24:57.703Z,6.54
2023-02-11T03:25:57.649Z,6.64
2023-02-11T03:26:57.595Z,6.58
2023-02-11T03:27:57.640Z,6.63
2023-02-11T03:28:57.517Z,6.61
2023-02-11T03:29:57.468Z,6.78
2023-02-11T03:30:57.455Z,6.63
2023-02-11T03:31:57.416Z,6.60
2023-02-11T03:32:57.331Z,6.61
2023-02-11T03:33:57.290Z,6.57
2023-02-11T03:34:57.279Z,6.61
2023-02-11T03:35:57.203Z,6.64
2023-02-11T03:36:57.163Z,6.64
2023-02-11T03:37:57.114Z,6.57
2023-02-11T03:38:57.074Z,6.73
2023-02-11T03:39:57.038Z,6.69
2023-02-11T03:40:56.997Z,6.63
2023-02-11T03:41:56.945Z,6.65
2023-02-11T03:42:56.917Z,6.69
2023-02-11T03:43:56.872Z,6.60
2023-02-11T03:44:56.817Z,6.60
2023-02-11T03:45:56.815Z,6.63
2023-02-11T03:46:56.741Z,6.76
2023-02-11T03:47:56.698Z,6.63
2023-02-11T03:48:56.645Z,6.73
2023-02-11T03:49:56.606Z,6.69
2023-02-11T03:50:56.554Z,6.63
2023-02-11T03:51:56.515Z,6.64
2023-02-11T03:52:56.473Z,6.75
2023-02-11T03:53:56.439Z,6.65
2023-02-11T03:54:56.392Z,6.69
2023-02-11T03:55:56.344Z,6.68
2023-02-11T03:56:56.298Z,6.68
2023-02-11T03:57:56.280Z,6.60
2023-02-11T03:58:56.210Z,6.73
2023-02-11T03:59:56.193Z,6.68
2023-02-11T04:00:56.157Z,6.69
2023-02-11T04:01:56.083Z,6.63
2023-02-11T04:02:56.053Z,6.60
2023-02-11T04:03:55.999Z,6.69
2023-02-11T04:04:55.951Z,6.73
2023-02-11T04:05:55.929Z,6.71
2023-02-11T04:06:55.864Z,6.63
2023-02-11T04:07:55.825Z,6.69
2023-02-11T04:08:55.780Z,6.65
2023-02-11T04:09:55.734Z,6.69
2023-02-11T04:10:55.692Z,6.63
2023-02-11T04:11:55.663Z,6.61
2023-02-11T04:12:55.607Z,6.60
2023-02-11T04:13:55.579Z,6.65
2023-02-11T04:14:55.519Z,6.63
2023-02-11T04:15:55.476Z,6.61
2023-02-11T04:16:55.434Z,6.68
2023-02-11T04:17:55.458Z,6.65
2023-02-11T04:18:55.347Z,6.61
2023-02-11T04:21:49.988Z,6.65
2023-02-11T04:22:27.362Z,6.68
2023-02-11T04:23:27.307Z,6.61
2023-02-11T04:24:27.265Z,6.58
2023-02-11T04:25:27.225Z,6.60
2023-02-11T04:26:27.205Z,6.64
2023-02-11T04:27:27.134Z,6.60
2023-02-11T04:28:27.165Z,6.69
2023-02-11T04:29:27.047Z,6.61
2023-02-11T04:30:27.006Z,6.64
2023-02-11T04:31:27.043Z,6.65
2023-02-11T04:32:26.920Z,6.60
2023-02-11T04:33:26.875Z,6.65
2023-02-11T04:34:26.849Z,6.64
2023-02-11T04:35:26.796Z,6.71
2023-02-11T04:36:26.748Z,6.60
2023-02-11T04:37:26.703Z,6.55
2023-02-11T04:38:26.682Z,6.78
2023-02-11T04:39:26.637Z,6.58
2023-02-11T04:40:26.573Z,6.69
2023-02-11T04:41:26.534Z,6.65
2023-02-11T04:42:26.495Z,6.71
2023-02-11T04:43:26.449Z,6.65
2023-02-11T04:44:26.421Z,6.65
2023-02-11T04:45:26.358Z,6.69
2023-02-11T04:46:26.425Z,6.65
2023-02-11T04:47:26.286Z,6.65
2023-02-11T04:48:26.235Z,6.68
2023-02-11T04:49:26.185Z,6.61
2023-02-11T04:50:26.157Z,6.64
2023-02-11T04:51:26.106Z,6.61
2023-02-11T04:52:26.061Z,6.63
2023-02-11T04:53:26.014Z,6.65
2023-02-11T04:54:25.970Z,6.60
2023-02-11T04:55:25.934Z,6.69
2023-02-11T04:56:25.898Z,6.65
2023-02-11T04:57:25.859Z,6.69
2023-02-11T04:58:25.800Z,6.63
2023-02-11T04:59:25.759Z,6.69
2023-02-11T05:00:25.716Z,6.69
2023-02-11T05:01:25.699Z,6.69
2023-02-11T05:02:25.626Z,6.60
2023-02-11T05:03:25.585Z,6.60
2023-02-11T05:04:25.619Z,6.72
2023-02-11T05:05:25.495Z,6.60
2023-02-11T05:06:25.454Z,6.68
2023-02-11T05:07:25.420Z,6.61
2023-02-11T05:08:25.367Z,6.60
2023-02-11T05:09:25.332Z,6.63
2023-02-11T05:10:25.280Z,6.73
2023-02-11T05:11:25.250Z,6.57
2023-02-11T05:12:25.193Z,6.64
2023-02-11T05:13:25.155Z,6.65
2023-02-11T05:14:25.111Z,6.64
2023-02-11T05:15:25.076Z,6.53
2023-02-11T05:16:25.187Z,6.68
2023-02-11T05:17:24.995Z,6.71
2023-02-11T05:18:24.939Z,6.54
2023-02-11T05:19:24.893Z,6.63
2023-02-11T05:20:24.850Z,6.58
2023-02-11T05:21:24.811Z,6.54
2023-02-11T05:22:24.769Z,6.58
2023-02-11T05:23:24.727Z,6.64
2023-02-11T05:24:24.673Z,6.50
2023-02-11T05:25:24.628Z,6.54
2023-02-11T05:26:24.652Z,6.55
2023-02-11T05:28:57.691Z,6.46
2023-02-11T05:29:57.632Z,6.46
2023-02-11T05:30:57.629Z,6.46
2023-02-11T05:31:57.541Z,6.45
2023-02-11T05:32:57.497Z,6.32
2023-02-11T05:33:57.448Z,6.43
2023-02-11T05:34:57.427Z,6.40
2023-02-11T05:35:57.361Z,6.39
2023-02-11T05:36:57.358Z,6.40
2023-02-11T05:37:57.273Z,6.33
2023-02-11T05:38:57.235Z,6.36
2023-02-11T05:39:57.188Z,6.25
2023-02-11T05:40:57.162Z,6.42
2023-02-11T05:41:57.104Z,6.33
2023-02-11T05:42:57.059Z,6.36
2023-02-11T05:43:57.012Z,6.33
2023-02-11T05:44:56.974Z,6.39
2023-02-11T05:45:56.961Z,6.42
2023-02-11T05:46:56.904Z,6.39
2023-02-11T05:47:56.843Z,6.30
2023-02-11T05:48:56.822Z,6.38
2023-02-11T05:49:56.756Z,6.33
2023-02-11T05:50:56.711Z,6.35
2023-02-11T05:51:56.668Z,6.32
2023-02-11T05:52:56.645Z,6.33
2023-02-11T05:53:56.582Z,6.30
2023-02-11T05:54:56.549Z,6.36
2023-02-11T05:55:56.509Z,6.30
2023-02-11T05:56:56.461Z,6.36
2023-02-11T05:57:56.412Z,6.28
2023-02-11T05:58:56.376Z,6.24
2023-02-11T05:59:56.321Z,6.33
2023-02-11T06:00:56.282Z,6.28
2023-02-11T06:01:56.233Z,6.27
2023-02-11T06:02:56.233Z,6.30
2023-02-11T06:03:56.220Z,6.24
2023-02-11T06:04:56.120Z,6.32
2023-02-11T06:05:56.062Z,6.17
2023-02-11T06:06:56.024Z,6.20
2023-02-11T06:07:55.984Z,6.17
2023-02-11T06:08:55.944Z,6.14
2023-02-11T06:09:55.890Z,6.16
2023-02-11T06:10:55.851Z,6.10
2023-02-11T06:11:55.802Z,6.13
2023-02-11T06:12:55.763Z,6.19
2023-02-11T06:13:55.716Z,6.16
2023-02-11T06:14:55.686Z,6.30
2023-02-11T06:15:55.636Z,6.19
2023-02-11T06:16:55.584Z,6.32
2023-02-11T06:17:55.537Z,6.27
2023-02-11T06:18:55.505Z,6.25
2023-02-11T06:19:55.456Z,6.27
2023-02-11T06:20:55.417Z,6.28
2023-02-11T06:21:55.383Z,6.25
2023-02-11T06:22:55.333Z,6.20
2023-02-11T06:23:55.280Z,6.17
2023-02-11T06:25:01.752Z,6.17
2023-02-11T06:25:55.192Z,6.28
2023-02-11T06:26:55.197Z,6.17
2023-02-11T06:27:55.297Z,6.28
2023-02-11T06:28:55.075Z,6.17
2023-02-11T06:29:55.034Z,6.24
2023-02-11T06:30:55.133Z,6.19
2023-02-11T06:31:55.060Z,6.21
2023-02-11T06:32:54.963Z,6.30
2023-02-11T06:33:54.860Z,6.28
2023-02-11T06:34:54.805Z,6.25
2023-02-11T06:35:54.758Z,6.27
2023-02-11T06:36:54.724Z,6.27
2023-02-11T06:37:54.673Z,6.38
2023-02-11T06:38:54.631Z,6.28
2023-02-11T06:39:54.594Z,6.36
2023-02-11T06:40:54.588Z,6.35
2023-02-11T06:41:54.523Z,6.35
2023-02-11T06:42:54.457Z,6.33
2023-02-11T06:43:54.412Z,6.39
2023-02-11T06:44:54.376Z,6.35
2023-02-11T06:45:54.325Z,6.33
2023-02-11T06:46:54.405Z,6.40
2023-02-11T06:47:54.258Z,6.33
2023-02-11T06:48:54.205Z,6.30
2023-02-11T06:49:54.155Z,6.27
2023-02-11T06:50:54.113Z,6.33
2023-02-11T06:51:54.070Z,6.40
2023-02-11T06:52:54.044Z,6.42
2023-02-11T06:53:53.984Z,6.32
2023-02-11T06:54:53.939Z,6.38
2023-02-11T06:55:53.893Z,6.42
2023-02-11T06:56:53.857Z,6.40
2023-02-11T06:57:53.808Z,6.42
2023-02-11T06:58:53.781Z,6.43
2023-02-11T06:59:53.721Z,6.40
2023-02-11T07:00:53.680Z,6.36
2023-02-11T07:01:53.656Z,6.30
2023-02-11T07:02:53.659Z,6.39
2023-02-11T07:03:53.561Z,6.35
2023-02-11T07:04:53.518Z,6.42
2023-02-11T07:05:53.541Z,6.35
2023-02-11T07:06:53.437Z,6.36
2023-02-11T07:07:53.375Z,6.39
2023-02-11T07:08:53.332Z,6.30
2023-02-11T07:09:53.301Z,6.33
2023-02-11T07:10:53.244Z,6.45
2023-02-11T07:11:53.202Z,6.45
2023-02-11T07:12:53.161Z,6.42
2023-02-11T07:13:53.114Z,6.40
2023-02-11T07:14:53.073Z,6.42
2023-02-11T07:15:53.390Z,6.46
2023-02-11T07:16:52.994Z,6.39
2023-02-11T07:17:52.943Z,6.43
2023-02-11T07:18:52.905Z,6.43
2023-02-11T07:19:52.870Z,6.43
2023-02-11T07:20:52.816Z,6.45
2023-02-11T07:21:52.782Z,6.43
2023-02-11T07:22:52.732Z,6.35
2023-02-11T07:23:52.701Z,6.51
2023-02-11T07:24:52.642Z,6.40
2023-02-11T07:25:52.785Z,6.48
2023-02-11T07:26:52.567Z,6.40
2023-02-11T07:27:52.600Z,6.55
2023-02-11T07:28:52.496Z,6.46
2023-02-11T07:29:52.428Z,6.50
2023-02-11T07:30:52.438Z,6.57
2023-02-11T07:31:52.411Z,6.42
2023-02-11T07:32:52.313Z,6.51
2023-02-11T07:33:52.249Z,6.61
2023-02-11T07:34:52.317Z,6.57
2023-02-11T07:35:52.518Z,6.63
2023-02-11T07:36:52.137Z,6.58
2023-02-11T07:37:52.077Z,6.57
2023-02-11T07:38:52.058Z,6.60
2023-02-11T07:39:51.997Z,6.61
2023-02-11T07:40:51.954Z,6.60
2023-02-11T07:41:51.916Z,6.57
2023-02-11T07:42:51.869Z,6.58
2023-02-11T07:43:51.823Z,6.65
2023-02-11T07:44:51.795Z,6.68
2023-02-11T07:45:51.988Z,6.69
2023-02-11T07:46:51.729Z,6.68
2023-02-11T07:47:51.652Z,6.69
2023-02-11T07:48:51.613Z,6.65
2023-02-11T07:49:53.396Z,6.64
2023-02-11T07:50:51.528Z,6.61
2023-02-11T07:51:51.508Z,6.65
2023-02-11T07:52:51.435Z,6.63
2023-02-11T07:53:51.389Z,6.55
2023-02-11T07:54:51.352Z,6.60
2023-02-11T07:55:51.722Z,6.61
2023-02-11T07:56:51.269Z,6.61
2023-02-11T07:57:51.217Z,6.68
2023-02-11T07:58:51.189Z,6.68
2023-02-11T07:59:51.136Z,6.71
2023-02-11T08:00:51.101Z,6.71
2023-02-11T08:01:51.109Z,6.73
2023-02-11T08:02:51.009Z,6.68
2023-02-11T08:03:50.962Z,6.78
2023-02-11T08:04:50.942Z,6.75
2023-02-11T08:05:51.167Z,6.65
2023-02-11T08:06:50.845Z,6.76
2023-02-11T08:07:50.804Z,6.71
2023-02-11T08:08:50.752Z,6.76
2023-02-11T08:09:50.707Z,6.78
2023-02-11T08:10:51.071Z,6.72
2023-02-11T08:11:50.620Z,6.86
2023-02-11T08:12:50.577Z,6.75
2023-02-11T08:13:50.548Z,6.78
2023-02-11T08:14:50.491Z,6.86
2023-02-11T08:15:50.722Z,6.71
2023-02-11T08:16:50.452Z,6.78
2023-02-11T08:17:50.361Z,6.78
2023-02-11T08:18:50.318Z,6.81
2023-02-11T08:19:50.291Z,6.86
2023-02-11T08:20:50.571Z,6.71
2023-02-11T08:21:50.190Z,6.75
2023-02-11T08:22:50.149Z,6.81
2023-02-11T08:23:50.100Z,6.82
2023-02-11T08:24:52.304Z,6.76
2023-02-11T08:25:50.033Z,6.75
2023-02-11T08:26:49.978Z,6.90
2023-02-11T08:27:49.930Z,6.93
2023-02-11T08:28:49.890Z,6.93
2023-02-11T08:29:49.845Z,6.89
2023-02-11T08:30:50.118Z,6.93
2023-02-11T08:31:49.847Z,6.93
2023-02-11T08:32:49.720Z,6.89
2023-02-11T08:33:49.698Z,6.93
2023-02-11T08:34:49.635Z,6.97
2023-02-11T08:35:49.599Z,7.05
2023-02-11T08:36:49.554Z,6.90
2023-02-11T08:37:49.519Z,7.05
2023-02-11T08:38:49.471Z,6.91
2023-02-11T08:39:49.465Z,7.04
2023-02-11T08:40:49.790Z,6.93
2023-02-11T08:41:49.332Z,7.08
2023-02-11T08:42:49.311Z,6.91
2023-02-11T08:43:49.260Z,6.91
2023-02-11T08:44:49.210Z,6.97
2023-02-11T08:45:49.605Z,6.86
2023-02-11T08:46:49.129Z,6.99
2023-02-11T08:47:49.078Z,6.96
2023-02-11T08:48:49.036Z,7.01
2023-02-11T08:49:49.011Z,7.05
2023-02-11T08:50:48.949Z,7.08
2023-02-11T08:51:48.902Z,6.96
2023-02-11T08:52:48.883Z,6.99
2023-02-11T08:53:48.828Z,7.12
2023-02-11T08:54:48.781Z,6.99
2023-02-11T08:55:48.875Z,7.04
2023-02-11T08:56:48.694Z,7.00
2023-02-11T08:57:48.660Z,7.15
2023-02-11T08:58:48.636Z,7.12
2023-02-11T08:59:48.569Z,7.11
2023-02-11T09:00:49.033Z,7.07
2023-02-11T09:01:48.567Z,7.07
2023-02-11T09:02:48.448Z,7.01
2023-02-11T09:03:48.404Z,6.99
2023-02-11T09:04:48.367Z,7.05
2023-02-11T09:05:48.311Z,7.12
2023-02-11T09:06:48.282Z,7.05
2023-02-11T09:07:48.228Z,7.11
2023-02-11T09:08:48.193Z,7.14
2023-02-11T09:09:48.142Z,7.12
2023-02-11T09:10:48.144Z,7.15
2023-02-11T09:11:48.059Z,7.14
2023-02-11T09:12:48.024Z,7.12
2023-02-11T09:13:47.990Z,7.19
2023-02-11T09:14:47.927Z,7.15
2023-02-11T09:15:47.885Z,7.21
2023-02-11T09:16:47.906Z,7.24
2023-02-11T09:17:47.804Z,7.24
2023-02-11T09:18:47.872Z,7.27
2023-02-11T09:19:47.722Z,7.19
2023-02-11T09:20:47.679Z,7.23
2023-02-11T09:21:47.639Z,7.27
2023-02-11T09:22:47.596Z,7.30
2023-02-11T09:23:47.585Z,7.16
2023-02-11T09:24:47.528Z,7.26
2023-02-11T09:25:47.474Z,7.26
2023-02-11T09:26:47.452Z,7.30
2023-02-11T09:27:47.383Z,7.34
2023-02-11T09:28:47.398Z,7.26
2023-02-11T09:29:47.293Z,7.21
2023-02-11T09:30:47.340Z,7.27
2023-02-11T09:31:47.346Z,7.44
2023-02-11T09:32:47.167Z,7.33
2023-02-11T09:33:47.122Z,7.21
2023-02-11T09:34:47.083Z,7.30
2023-02-11T09:35:47.041Z,7.27
2023-02-11T09:36:47.028Z,7.27
2023-02-11T09:37:46.972Z,7.26
2023-02-11T09:38:46.947Z,7.30
2023-02-11T09:39:46.877Z,7.29
2023-02-11T09:40:46.829Z,7.32
2023-02-11T09:41:46.790Z,7.27
2023-02-11T09:42:46.755Z,7.36
2023-02-11T09:43:46.727Z,7.42
2023-02-11T09:44:46.659Z,7.41
2023-02-11T09:45:46.670Z,7.37
2023-02-11T09:46:46.574Z,7.39
2023-02-11T09:47:46.531Z,7.36
2023-02-11T09:48:46.531Z,7.44
2023-02-11T09:49:46.461Z,7.55
2023-02-11T09:50:46.421Z,7.45
2023-02-11T09:51:46.367Z,7.55
2023-02-11T09:52:46.320Z,7.55
2023-02-11T09:53:46.276Z,7.44
2023-02-11T09:54:46.235Z,7.52
2023-02-11T09:55:46.198Z,7.55
2023-02-11T09:56:46.164Z,7.55
2023-02-11T09:57:46.110Z,7.60
2023-02-11T09:58:46.208Z,7.50
2023-02-11T09:59:46.034Z,7.48
2023-02-11T10:00:45.994Z,7.50
2023-02-11T10:01:46.016Z,7.54
2023-02-11T10:02:45.919Z,7.52
2023-02-11T10:03:45.862Z,7.48
2023-02-11T10:04:45.820Z,7.63
2023-02-11T10:05:45.782Z,7.50
2023-02-11T10:06:45.773Z,7.62
2023-02-11T10:07:45.693Z,7.60
2023-02-11T10:08:45.664Z,7.54
2023-02-11T10:09:45.646Z,7.63
2023-02-11T10:10:45.562Z,7.55
2023-02-11T10:11:45.523Z,7.63
2023-02-11T10:12:45.484Z,7.63
2023-02-11T10:13:45.462Z,7.58
2023-02-11T10:14:45.396Z,7.58
2023-02-11T10:15:45.394Z,7.57
2023-02-11T10:16:45.318Z,7.57
2023-02-11T10:17:45.270Z,7.62
2023-02-11T10:18:45.233Z,7.60
2023-02-11T10:19:45.200Z,7.74
2023-02-11T10:20:45.145Z,7.71
2023-02-11T10:21:45.104Z,7.77
2023-02-11T10:22:45.059Z,7.71
2023-02-11T10:23:45.047Z,7.79
2023-02-11T10:24:44.976Z,7.74
2023-02-11T10:25:45.433Z,7.81
2023-02-11T10:26:44.909Z,7.73
2023-02-11T10:27:44.853Z,7.70
2023-02-11T10:28:45.014Z,7.71
2023-02-11T10:29:44.766Z,7.76
2023-02-11T10:30:44.788Z,7.76
2023-02-11T10:31:44.728Z,7.69
2023-02-11T10:32:44.636Z,7.70
2023-02-11T10:33:44.597Z,7.76
2023-02-11T10:34:44.553Z,7.69
2023-02-11T10:35:44.512Z,7.67
2023-02-11T10:36:44.502Z,7.70
2023-02-11T10:37:44.679Z,7.73
2023-02-11T10:38:44.382Z,7.71
2023-02-11T10:39:44.350Z,7.79
2023-02-11T10:40:44.296Z,7.74
2023-02-11T10:41:44.264Z,7.73
2023-02-11T10:42:44.219Z,7.67
2023-02-11T10:43:44.186Z,7.76
2023-02-11T10:44:44.139Z,7.71
2023-02-11T10:45:44.116Z,7.85
2023-02-11T10:46:44.127Z,7.74
2023-02-11T10:47:44.007Z,7.86
2023-02-11T10:48:44.140Z,7.76
2023-02-11T10:49:43.919Z,7.81
2023-02-11T10:50:43.890Z,7.92
2023-02-11T10:51:43.839Z,7.77
2023-02-11T10:52:43.800Z,7.71
2023-02-11T10:53:43.753Z,7.74
2023-02-11T10:54:43.713Z,7.74
2023-02-11T10:55:43.670Z,7.76
2023-02-11T10:56:43.642Z,7.82
2023-02-11T10:57:43.583Z,7.76
2023-02-11T10:58:43.542Z,7.88
2023-02-11T10:59:43.501Z,7.74
2023-02-11T11:00:43.469Z,7.74
2023-02-11T11:01:43.477Z,7.88
2023-02-11T11:02:43.375Z,7.76
2023-02-11T11:03:43.344Z,7.74
2023-02-11T11:04:43.352Z,7.76
2023-02-11T11:05:43.247Z,7.86
2023-02-11T11:06:43.202Z,7.79
2023-02-11T11:07:43.164Z,7.71
2023-02-11T11:08:43.147Z,7.77
2023-02-11T11:09:43.092Z,7.84
2023-02-11T11:10:43.034Z,7.88
2023-02-11T11:11:42.997Z,7.89
2023-02-11T11:12:42.952Z,7.89
2023-02-11T11:13:42.909Z,7.77
2023-02-11T11:14:42.866Z,7.89
2023-02-11T11:15:42.868Z,7.89
2023-02-11T11:16:42.784Z,7.84
2023-02-11T11:17:42.740Z,7.94
2023-02-11T11:18:42.763Z,8.02
2023-02-11T11:19:42.660Z,7.92
2023-02-11T11:20:42.614Z,8.03
2023-02-11T11:21:42.585Z,7.85
2023-02-11T11:22:42.531Z,7.92
2023-02-11T11:23:42.491Z,7.91
2023-02-11T11:24:42.449Z,7.86
2023-02-11T11:25:42.406Z,7.82
2023-02-11T11:26:42.370Z,7.92
2023-02-11T11:27:42.333Z,7.91
2023-02-11T11:28:51.839Z,7.89
2023-02-11T11:29:42.236Z,7.86
2023-02-11T11:30:42.231Z,7.89
2023-02-11T11:31:42.197Z,7.88
2023-02-11T11:32:42.126Z,7.84
2023-02-11T11:33:42.070Z,7.88
2023-02-11T11:34:42.057Z,7.85
2023-02-11T11:35:41.983Z,7.89
2023-02-11T11:36:41.936Z,7.81
2023-02-11T11:37:41.900Z,7.77
2023-02-11T11:38:41.872Z,7.85
2023-02-11T11:39:41.843Z,7.88
2023-02-11T11:40:41.770Z,7.76
2023-02-11T11:41:41.734Z,7.91
2023-02-11T11:42:41.682Z,7.81
2023-02-11T11:43:41.642Z,7.82
2023-02-11T11:44:41.611Z,7.85
2023-02-11T11:45:41.571Z,7.89
2023-02-11T11:46:41.545Z,7.82
2023-02-11T11:47:41.473Z,7.85
2023-02-11T11:48:41.428Z,7.77
2023-02-11T11:49:41.396Z,7.86
2023-02-11T11:50:41.357Z,7.85
2023-02-11T11:51:41.327Z,7.85
2023-02-11T11:52:41.267Z,7.77
2023-02-11T11:53:41.248Z,7.79
2023-02-11T11:54:41.170Z,7.94
2023-02-11T11:55:41.143Z,7.92
2023-02-11T11:56:41.137Z,7.79
2023-02-11T11:57:41.062Z,7.89
2023-02-11T11:58:41.093Z,7.85
2023-02-11T11:59:40.964Z,7.79
2023-02-11T12:00:40.926Z,7.85
2023-02-11T12:01:40.920Z,7.84
2023-02-11T12:02:40.888Z,7.86
2023-02-11T12:03:40.797Z,7.85
2023-02-11T12:04:40.758Z,7.86
2023-02-11T12:05:40.732Z,7.86
2023-02-11T12:06:40.670Z,7.88
2023-02-11T12:07:40.630Z,7.86
2023-02-11T12:08:40.705Z,7.86
2023-02-11T12:09:40.554Z,7.88
2023-02-11T12:10:40.517Z,7.95
2023-02-11T12:11:40.463Z,7.94
2023-02-11T12:12:40.416Z,8.03
2023-02-11T12:13:40.393Z,7.96
2023-02-11T12:14:41.285Z,7.91
2023-02-11T12:15:40.309Z,7.95
2023-02-11T12:16:40.442Z,7.96
2023-02-11T12:17:40.208Z,7.99
2023-02-11T12:18:40.276Z,8.03
2023-02-11T12:19:40.126Z,8.04
2023-02-11T12:20:40.080Z,8.02
2023-02-11T12:21:40.050Z,8.07
2023-02-11T12:22:40.003Z,7.95
2023-02-11T12:23:39.958Z,7.95
2023-02-11T12:24:39.911Z,7.92
2023-02-11T12:25:39.875Z,7.95
2023-02-11T12:26:39.844Z,8.06
2023-02-11T12:27:39.800Z,8.06
2023-02-11T12:28:39.885Z,8.09
2023-02-11T12:29:39.705Z,8.12
2023-02-11T12:30:39.719Z,8.09
2023-02-11T12:31:39.631Z,8.10
2023-02-11T12:32:39.591Z,8.04
2023-02-11T12:33:39.560Z,8.20
2023-02-11T12:34:39.497Z,8.07
2023-02-11T12:35:39.464Z,8.04
2023-02-11T12:36:39.411Z,8.13
2023-02-11T12:37:39.407Z,8.17
2023-02-11T12:38:39.455Z,8.13
2023-02-11T12:39:39.301Z,8.17
2023-02-11T12:40:39.254Z,8.14
2023-02-11T12:41:39.202Z,8.24
2023-02-11T12:42:39.168Z,8.24
2023-02-11T12:43:39.154Z,8.22
2023-02-11T12:44:39.081Z,8.20
2023-02-11T12:45:39.060Z,8.27
2023-02-11T12:46:38.996Z,8.28
2023-02-11T12:47:38.953Z,8.27
2023-02-11T12:48:38.922Z,8.27
2023-02-11T12:49:38.876Z,8.21
2023-02-11T12:50:38.838Z,8.42
2023-02-11T12:51:38.791Z,8.24
2023-02-11T12:52:38.743Z,8.34
2023-02-11T12:53:38.708Z,8.24
2023-02-11T12:54:38.673Z,8.24
2023-02-11T12:55:38.630Z,8.28
2023-02-11T12:56:38.576Z,8.25
2023-02-11T12:57:38.536Z,8.24
2023-02-11T12:58:44.878Z,8.37
2023-02-11T12:59:38.458Z,8.37
2023-02-11T13:00:38.427Z,8.34
2023-02-11T13:01:38.443Z,8.34
2023-02-11T13:02:38.422Z,8.28
2023-02-11T13:03:38.289Z,8.36
2023-02-11T13:04:38.264Z,8.40
2023-02-11T13:05:38.201Z,8.28
2023-02-11T13:06:38.168Z,8.37
2023-02-11T13:07:38.150Z,8.36
2023-02-11T13:08:38.143Z,8.31
2023-02-11T13:09:38.037Z,8.32
2023-02-11T13:10:38.003Z,8.37
2023-02-11T13:11:37.955Z,8.36
2023-02-11T13:12:37.913Z,8.45
2023-02-11T13:13:37.885Z,8.42
2023-02-11T13:14:37.836Z,8.45
2023-02-11T13:15:37.788Z,8.45
2023-02-11T13:16:37.860Z,8.40
2023-02-11T13:17:37.706Z,8.42
2023-02-11T13:18:37.661Z,8.52
2023-02-11T13:19:37.644Z,8.54
2023-02-11T13:20:37.584Z,8.47